createdAt,value
2017-12-31T00:00:43.706Z,11.80
2017-12-31T00:03:10.646Z,11.70
2017-12-31T00:05:37.522Z,11.80
2017-12-31T00:08:04.454Z,11.80
2017-12-31T00:10:31.312Z,11.80
2017-12-31T00:12:58.267Z,11.70
2017-12-31T00:15:25.948Z,11.60
2017-12-31T00:17:52.802Z,11.60
2017-12-31T00:20:19.736Z,11.60
2017-12-31T00:22:46.631Z,11.60
2017-12-31T00:25:13.492Z,11.60
2017-12-31T00:27:40.438Z,11.60
2017-12-31T00:30:07.334Z,11.50
2017-12-31T00:32:34.355Z,11.50
2017-12-31T00:35:02.028Z,11.50
2017-12-31T00:37:28.918Z,11.50
2017-12-31T00:39:55.866Z,11.40
2017-12-31T00:42:22.811Z,11.50
2017-12-31T00:44:49.741Z,11.40
2017-12-31T00:47:16.598Z,11.40
2017-12-31T00:49:43.484Z,11.50
2017-12-31T00:52:10.410Z,11.50
2017-12-31T00:54:37.353Z,11.40
2017-12-31T00:57:04.239Z,11.50
2017-12-31T00:59:31.080Z,11.50
2017-12-31T01:01:58.023Z,11.50
2017-12-31T01:04:25.657Z,11.50
2017-12-31T01:06:52.514Z,11.50
2017-12-31T01:09:20.198Z,11.50
2017-12-31T01:11:47.075Z,11.50
2017-12-31T01:14:13.993Z,11.50
2017-12-31T01:16:40.967Z,11.50
2017-12-31T01:19:07.815Z,11.50
2017-12-31T01:21:34.768Z,11.60
2017-12-31T01:24:01.638Z,11.60
2017-12-31T01:26:28.605Z,11.60
2017-12-31T01:28:55.596Z,11.70
2017-12-31T01:31:22.576Z,11.70
2017-12-31T01:33:57.750Z,11.70
2017-12-31T01:36:39.171Z,11.60
2017-12-31T01:39:21.612Z,11.40
2017-12-31T01:41:55.289Z,11.50
2017-12-31T01:44:22.444Z,11.60
2017-12-31T01:46:49.428Z,11.60
2017-12-31T01:49:17.039Z,11.70
2017-12-31T01:51:54.063Z,11.70
2017-12-31T01:54:22.336Z,11.70
2017-12-31T01:56:49.272Z,11.70
2017-12-31T01:59:16.141Z,11.60
2017-12-31T02:01:43.819Z,11.60
2017-12-31T02:04:11.432Z,11.80
2017-12-31T02:06:50.500Z,11.70
2017-12-31T02:09:29.625Z,11.80
2017-12-31T02:12:11.838Z,11.80
2017-12-31T02:14:55.054Z,11.80
2017-12-31T02:17:44.318Z,11.80
2017-12-31T02:20:14.105Z,11.90
2017-12-31T02:22:41.075Z,11.90
2017-12-31T02:25:09.240Z,11.90
2017-12-31T02:27:37.450Z,12.10
2017-12-31T02:30:20.614Z,12.20
2017-12-31T02:32:49.524Z,12.10
2017-12-31T02:35:19.159Z,12.20
2017-12-31T02:37:46.222Z,12.10
2017-12-31T02:43:07.427Z,12.20
2017-12-31T02:45:39.280Z,12.10
2017-12-31T02:48:06.206Z,12.20
2017-12-31T02:50:33.124Z,12.00
2017-12-31T02:53:00.048Z,12.20
2017-12-31T02:55:26.994Z,12.30
2017-12-31T02:57:54.632Z,12.20
2017-12-31T03:00:21.595Z,12.10
2017-12-31T03:02:48.461Z,12.20
2017-12-31T03:05:18.600Z,12.30
2017-12-31T03:07:48.990Z,12.30
2017-12-31T03:10:20.769Z,12.30
2017-12-31T03:13:05.384Z,12.30
2017-12-31T03:15:43.905Z,12.30
2017-12-31T03:18:11.719Z,12.30
2017-12-31T03:20:39.511Z,12.30
2017-12-31T03:23:07.594Z,12.30
2017-12-31T03:25:50.129Z,12.30
2017-12-31T03:28:26.443Z,12.30
2017-12-31T03:31:08.257Z,12.40
2017-12-31T03:33:48.842Z,12.30
2017-12-31T03:36:32.097Z,12.30
2017-12-31T03:39:00.071Z,12.30
2017-12-31T03:41:39.316Z,12.30
2017-12-31T03:44:18.730Z,12.20
2017-12-31T03:46:58.476Z,12.30
2017-12-31T03:49:41.161Z,12.30
2017-12-31T03:52:26.501Z,12.30
2017-12-31T03:55:08.275Z,12.30
2017-12-31T03:57:48.280Z,12.30
2017-12-31T04:00:29.544Z,12.30
2017-12-31T04:03:11.112Z,12.30
2017-12-31T04:05:51.826Z,12.40
2017-12-31T04:08:34.839Z,12.40
2017-12-31T04:11:18.043Z,12.40
2017-12-31T04:13:45.759Z,12.40
2017-12-31T04:16:12.730Z,12.50
2017-12-31T04:18:39.580Z,12.40
2017-12-31T04:21:06.524Z,12.50
2017-12-31T04:23:46.195Z,12.40
2017-12-31T04:26:25.739Z,12.40
2017-12-31T04:29:04.263Z,12.40
2017-12-31T04:31:46.961Z,12.50
2017-12-31T04:34:27.705Z,12.50
2017-12-31T04:39:51.196Z,12.50
2017-12-31T04:42:29.602Z,12.60
2017-12-31T04:47:59.294Z,12.50
2017-12-31T04:53:25.855Z,12.60
2017-12-31T04:58:52.049Z,12.50
2017-12-31T05:01:32.037Z,12.50
2017-12-31T05:03:59.163Z,12.60
2017-12-31T05:06:41.176Z,12.50
2017-12-31T05:09:24.192Z,12.60
2017-12-31T05:12:06.226Z,12.60
2017-12-31T05:14:45.236Z,12.70
2017-12-31T05:20:08.884Z,12.60
2017-12-31T05:22:51.920Z,12.60
2017-12-31T05:25:33.312Z,12.70
2017-12-31T05:28:14.491Z,12.70
2017-12-31T05:30:56.901Z,12.60
2017-12-31T05:33:39.484Z,12.70
2017-12-31T05:36:21.519Z,12.60
2017-12-31T05:41:45.988Z,12.70
2017-12-31T05:44:28.276Z,12.60
2017-12-31T05:47:11.224Z,12.50
2017-12-31T05:49:51.781Z,12.60
2017-12-31T05:52:31.210Z,12.80
2017-12-31T05:55:08.778Z,12.70
2017-12-31T05:57:49.138Z,12.80
2017-12-31T06:00:29.856Z,12.70
2017-12-31T06:03:11.318Z,12.80
2017-12-31T06:08:33.779Z,12.70
2017-12-31T06:11:16.192Z,12.90
2017-12-31T06:13:56.446Z,13.00
2017-12-31T06:16:36.943Z,13.00
2017-12-31T06:21:57.929Z,12.90
2017-12-31T06:24:38.745Z,12.90
2017-12-31T06:27:20.196Z,12.90
2017-12-31T06:30:01.934Z,12.90
2017-12-31T06:32:44.325Z,12.90
2017-12-31T06:35:24.336Z,12.80
2017-12-31T06:38:04.103Z,12.80
2017-12-31T06:40:44.384Z,12.80
2017-12-31T06:43:25.772Z,12.80
2017-12-31T06:46:06.871Z,12.80
2017-12-31T06:51:34.429Z,12.90
2017-12-31T06:54:16.741Z,12.70
2017-12-31T06:56:58.957Z,12.70
2017-12-31T06:59:42.688Z,12.70
2017-12-31T07:02:22.063Z,12.70
2017-12-31T07:05:05.714Z,12.80
2017-12-31T07:07:44.800Z,12.80
2017-12-31T07:10:23.851Z,12.80
2017-12-31T07:13:01.477Z,12.80
2017-12-31T07:15:40.769Z,12.80
2017-12-31T07:18:18.366Z,12.70
2017-12-31T07:20:59.424Z,12.80
2017-12-31T07:23:40.991Z,12.70
2017-12-31T07:29:07.384Z,12.70
2017-12-31T07:31:49.826Z,12.60
2017-12-31T07:34:32.711Z,12.50
2017-12-31T07:37:12.400Z,12.40
2017-12-31T07:39:55.762Z,12.40
2017-12-31T07:42:38.273Z,12.40
2017-12-31T07:45:23.065Z,12.40
2017-12-31T07:48:03.100Z,12.40
2017-12-31T07:50:45.270Z,12.50
2017-12-31T07:53:25.805Z,12.50
2017-12-31T07:56:06.490Z,12.50
2017-12-31T07:58:48.406Z,12.70
2017-12-31T08:01:32.466Z,12.70
2017-12-31T08:04:15.456Z,12.80
2017-12-31T08:06:55.273Z,12.80
2017-12-31T08:12:21.024Z,12.90
2017-12-31T08:15:04.747Z,12.90
2017-12-31T08:17:45.152Z,12.80
2017-12-31T08:20:23.002Z,12.80
2017-12-31T08:23:02.547Z,12.90
2017-12-31T08:25:45.205Z,12.90
2017-12-31T08:28:26.487Z,13.00
2017-12-31T08:31:07.331Z,13.00
2017-12-31T08:33:47.197Z,13.00
2017-12-31T08:36:27.767Z,12.90
2017-12-31T08:39:09.257Z,13.10
2017-12-31T08:41:48.057Z,13.20
2017-12-31T08:44:29.212Z,13.40
2017-12-31T08:47:12.189Z,13.50
2017-12-31T08:49:55.076Z,13.50
2017-12-31T08:52:33.670Z,13.40
2017-12-31T08:55:13.831Z,13.40
2017-12-31T09:00:42.940Z,13.30
2017-12-31T09:06:10.121Z,13.20
2017-12-31T09:08:51.785Z,13.40
2017-12-31T09:11:32.361Z,13.40
2017-12-31T09:14:11.613Z,13.40
2017-12-31T09:16:53.451Z,13.40
2017-12-31T09:19:36.504Z,13.40
2017-12-31T09:22:16.253Z,13.40
2017-12-31T09:24:58.241Z,13.60
2017-12-31T09:27:39.528Z,13.50
2017-12-31T09:35:48.392Z,13.40
2017-12-31T09:38:24.945Z,13.40
2017-12-31T09:41:05.390Z,13.30
2017-12-31T09:43:45.950Z,13.30
2017-12-31T09:46:27.462Z,13.30
2017-12-31T09:51:49.118Z,13.10
2017-12-31T09:54:31.480Z,13.10
2017-12-31T09:57:11.428Z,13.20
2017-12-31T10:05:16.306Z,13.50
2017-12-31T10:07:56.703Z,13.80
2017-12-31T10:10:36.447Z,13.90
2017-12-31T10:13:15.554Z,14.10
2017-12-31T10:15:55.243Z,14.10
2017-12-31T10:18:36.562Z,14.00
2017-12-31T10:23:57.463Z,14.10
2017-12-31T10:26:35.168Z,14.00
2017-12-31T10:29:16.799Z,14.10
2017-12-31T10:32:03.608Z,14.20
2017-12-31T10:34:47.072Z,14.30
2017-12-31T10:37:29.898Z,14.40
2017-12-31T10:40:07.778Z,14.30
2017-12-31T10:42:47.873Z,14.20
2017-12-31T10:45:29.750Z,14.30
2017-12-31T10:48:12.510Z,14.30
2017-12-31T10:53:34.516Z,14.50
2017-12-31T10:56:14.154Z,14.30
2017-12-31T10:58:53.597Z,14.20
2017-12-31T11:01:36.439Z,14.30
2017-12-31T11:04:21.167Z,14.30
2017-12-31T11:06:59.758Z,14.20
2017-12-31T11:09:40.538Z,14.30
2017-12-31T11:12:23.985Z,14.20
2017-12-31T11:15:04.705Z,14.20
2017-12-31T11:17:46.519Z,14.30
2017-12-31T11:20:27.926Z,14.30
2017-12-31T11:23:09.976Z,14.30
2017-12-31T11:25:52.677Z,14.30
2017-12-31T11:31:20.173Z,14.70
2017-12-31T11:34:02.779Z,14.90
2017-12-31T11:36:44.883Z,14.90
2017-12-31T11:39:24.986Z,14.60
2017-12-31T11:42:07.213Z,14.60
2017-12-31T11:44:46.089Z,14.40
2017-12-31T11:47:26.629Z,14.40
2017-12-31T11:50:06.027Z,14.40
2017-12-31T11:52:43.921Z,14.30
2017-12-31T11:55:24.633Z,14.10
2017-12-31T11:58:05.913Z,14.20
2017-12-31T12:00:46.458Z,14.20
2017-12-31T12:03:26.841Z,14.10
2017-12-31T12:06:09.278Z,14.10
2017-12-31T12:08:36.655Z,14.20
2017-12-31T12:14:00.262Z,14.00
2017-12-31T12:16:42.578Z,14.10
2017-12-31T12:19:11.238Z,14.10
2017-12-31T12:21:38.189Z,14.10
2017-12-31T12:24:05.279Z,14.10
2017-12-31T12:26:32.282Z,14.10
2017-12-31T12:29:10.350Z,14.20
2017-12-31T12:31:42.251Z,14.10
2017-12-31T12:34:20.784Z,14.20
2017-12-31T12:36:58.676Z,14.30
2017-12-31T12:39:36.559Z,14.30
2017-12-31T12:42:17.464Z,14.30
2017-12-31T12:44:58.552Z,14.20
2017-12-31T12:47:38.692Z,14.20
2017-12-31T12:50:20.531Z,14.10
2017-12-31T12:53:01.536Z,14.20
2017-12-31T12:55:46.367Z,14.10
2017-12-31T12:58:24.217Z,14.10
2017-12-31T13:01:03.109Z,14.10
2017-12-31T13:03:44.939Z,14.10
2017-12-31T13:06:22.766Z,14.10
2017-12-31T13:09:01.060Z,14.20
2017-12-31T13:11:41.232Z,14.20
2017-12-31T13:14:10.504Z,14.30
2017-12-31T13:16:47.761Z,14.40
2017-12-31T13:19:22.868Z,14.50
2017-12-31T13:22:01.568Z,14.50
2017-12-31T13:24:43.009Z,14.30
2017-12-31T13:27:21.659Z,14.30
2017-12-31T13:30:01.946Z,14.20
2017-12-31T13:32:30.800Z,14.20
2017-12-31T13:34:59.836Z,14.20
2017-12-31T13:37:40.309Z,14.20
2017-12-31T13:40:20.357Z,14.30
2017-12-31T13:43:01.273Z,14.30
2017-12-31T13:45:42.625Z,14.20
2017-12-31T13:48:23.841Z,14.30
2017-12-31T13:51:04.091Z,14.30
2017-12-31T13:53:43.936Z,14.20
2017-12-31T13:56:21.849Z,14.10
2017-12-31T13:59:04.618Z,14.10
2017-12-31T14:01:43.733Z,14.20
2017-12-31T14:04:11.622Z,14.20
2017-12-31T14:09:38.011Z,14.30
2017-12-31T14:12:06.680Z,14.30
2017-12-31T14:14:33.928Z,14.30
2017-12-31T14:17:07.083Z,14.20
2017-12-31T14:19:34.751Z,14.20
2017-12-31T14:22:03.204Z,14.30
2017-12-31T14:24:45.911Z,14.30
2017-12-31T14:27:15.664Z,14.30
2017-12-31T14:29:43.313Z,14.20
2017-12-31T14:32:22.989Z,14.20
2017-12-31T14:34:51.124Z,14.20
2017-12-31T14:37:22.925Z,14.20
2017-12-31T14:40:03.539Z,14.30
2017-12-31T14:42:34.679Z,14.40
2017-12-31T14:45:05.743Z,14.30
2017-12-31T14:47:37.635Z,14.40
2017-12-31T14:50:04.890Z,14.30
2017-12-31T14:52:34.443Z,14.20
2017-12-31T14:55:10.351Z,14.30
2017-12-31T14:57:39.566Z,14.30
2017-12-31T15:00:06.910Z,14.30
2017-12-31T15:02:47.413Z,14.20
2017-12-31T15:05:29.624Z,14.30
2017-12-31T15:08:10.241Z,14.30
2017-12-31T15:10:52.370Z,14.20
2017-12-31T15:13:25.151Z,14.10
2017-12-31T15:15:59.125Z,14.00
2017-12-31T15:18:39.945Z,14.00
2017-12-31T15:21:07.987Z,13.90
2017-12-31T15:23:35.119Z,13.90
2017-12-31T15:26:02.293Z,14.10
2017-12-31T15:28:43.575Z,14.10
2017-12-31T15:31:25.156Z,13.90
2017-12-31T15:34:05.548Z,13.80
2017-12-31T15:36:47.494Z,13.80
2017-12-31T15:39:28.899Z,13.70
2017-12-31T15:41:57.103Z,13.60
2017-12-31T15:44:24.484Z,13.60
2017-12-31T15:46:51.914Z,13.70
2017-12-31T15:49:19.866Z,13.60
2017-12-31T15:52:01.646Z,13.60
2017-12-31T15:54:43.255Z,13.50
2017-12-31T15:57:25.564Z,13.50
2017-12-31T16:02:40.162Z,13.30
2017-12-31T16:05:15.320Z,13.30
2017-12-31T16:07:42.669Z,13.30
2017-12-31T16:10:09.784Z,13.10
2017-12-31T16:12:52.021Z,13.10
2017-12-31T16:15:24.982Z,13.10
2017-12-31T16:17:59.286Z,13.00
2017-12-31T16:20:38.579Z,13.00
2017-12-31T16:23:06.660Z,13.00
2017-12-31T16:25:40.228Z,13.00
2017-12-31T16:28:07.114Z,13.00
2017-12-31T16:30:34.889Z,12.90
2017-12-31T16:33:02.961Z,12.90
2017-12-31T16:35:30.139Z,12.90
2017-12-31T16:37:57.760Z,13.00
2017-12-31T16:40:32.828Z,13.00
2017-12-31T16:43:00.652Z,13.10
2017-12-31T16:45:42.079Z,13.10
2017-12-31T16:48:24.105Z,13.10
2017-12-31T16:50:51.976Z,13.20
2017-12-31T16:53:21.697Z,13.10
2017-12-31T16:56:01.372Z,13.10
2017-12-31T16:58:29.224Z,13.10
2017-12-31T17:00:59.742Z,13.10
2017-12-31T17:03:28.503Z,13.00
2017-12-31T17:06:01.024Z,13.00
2017-12-31T17:08:28.051Z,13.00
2017-12-31T17:10:55.888Z,13.00
2017-12-31T17:13:32.910Z,13.00
2017-12-31T17:16:12.174Z,13.00
2017-12-31T17:18:51.652Z,13.00
2017-12-31T17:21:20.046Z,13.00
2017-12-31T17:23:48.250Z,12.90
2017-12-31T17:26:27.430Z,12.90
2017-12-31T17:29:06.876Z,12.90
2017-12-31T17:31:47.985Z,12.90
2017-12-31T17:34:15.039Z,12.90
2017-12-31T17:36:50.351Z,12.90
2017-12-31T17:39:20.589Z,13.00
2017-12-31T17:41:58.994Z,13.10
2017-12-31T17:44:33.217Z,13.10
2017-12-31T17:47:00.352Z,13.20
2017-12-31T17:49:39.857Z,13.20
2017-12-31T17:52:18.462Z,13.20
2017-12-31T17:54:54.552Z,13.20
2017-12-31T17:57:21.480Z,13.20
2017-12-31T18:00:02.170Z,13.30
2017-12-31T18:02:34.167Z,13.50
2017-12-31T18:05:05.594Z,13.40
2017-12-31T18:07:32.566Z,13.50
2017-12-31T18:10:05.061Z,13.50
2017-12-31T18:12:32.130Z,13.40
2017-12-31T18:14:59.109Z,13.40
2017-12-31T18:17:28.758Z,13.40
2017-12-31T18:19:56.661Z,13.30
2017-12-31T18:22:23.751Z,13.30
2017-12-31T18:24:50.750Z,13.30
2017-12-31T18:27:24.840Z,13.30
2017-12-31T18:29:57.585Z,13.30
2017-12-31T18:32:29.947Z,13.20
2017-12-31T18:34:56.962Z,13.20
2017-12-31T18:37:25.305Z,13.20
2017-12-31T18:40:01.000Z,13.30
2017-12-31T18:42:27.926Z,13.30
2017-12-31T18:44:59.835Z,13.20
2017-12-31T18:47:33.304Z,13.20
2017-12-31T18:50:02.556Z,13.20
2017-12-31T18:52:36.898Z,13.20
2017-12-31T18:55:04.680Z,13.30
2017-12-31T18:57:31.760Z,13.30
2017-12-31T18:59:58.646Z,13.40
2017-12-31T19:02:26.319Z,13.30
2017-12-31T19:04:54.065Z,13.30
2017-12-31T19:07:21.125Z,13.30
2017-12-31T19:09:48.987Z,13.20
2017-12-31T19:12:16.727Z,13.20
2017-12-31T19:14:43.771Z,13.20
2017-12-31T19:17:10.782Z,13.20
2017-12-31T19:19:37.768Z,13.20
2017-12-31T19:22:04.742Z,13.20
2017-12-31T19:24:32.604Z,13.30
2017-12-31T19:26:59.526Z,13.30
2017-12-31T19:29:26.531Z,13.40
2017-12-31T19:31:53.532Z,13.40
2017-12-31T19:34:21.086Z,13.40
2017-12-31T19:36:48.120Z,13.40
2017-12-31T19:39:15.052Z,13.40
2017-12-31T19:41:42.134Z,13.40
2017-12-31T19:44:09.151Z,13.50
2017-12-31T19:46:36.161Z,13.60
2017-12-31T19:49:03.198Z,13.60
2017-12-31T19:51:30.191Z,13.60
2017-12-31T19:53:57.295Z,13.50
2017-12-31T19:56:25.063Z,13.60
2017-12-31T19:58:52.072Z,13.60
2017-12-31T20:01:19.066Z,13.60
2017-12-31T20:03:47.062Z,13.60
2017-12-31T20:06:14.078Z,13.60
2017-12-31T20:08:41.798Z,13.70
2017-12-31T20:11:08.746Z,13.60
2017-12-31T20:13:35.749Z,13.70
2017-12-31T20:16:03.466Z,13.60
2017-12-31T20:18:30.595Z,13.60
2017-12-31T20:20:57.507Z,13.70
2017-12-31T20:23:24.563Z,13.70
2017-12-31T20:25:52.283Z,13.50
2017-12-31T20:28:19.209Z,13.50
2017-12-31T20:30:46.235Z,13.40
2017-12-31T20:33:13.306Z,13.30
2017-12-31T20:35:40.391Z,13.30
2017-12-31T20:38:07.498Z,13.30
2017-12-31T20:40:35.511Z,13.20
2017-12-31T20:43:03.257Z,13.20
2017-12-31T20:45:31.186Z,13.20
2017-12-31T20:47:58.346Z,13.10
2017-12-31T20:50:25.353Z,13.20
2017-12-31T20:52:53.226Z,13.20
2017-12-31T20:55:23.607Z,13.20
2017-12-31T20:57:50.664Z,13.20
2017-12-31T21:00:17.680Z,13.30
2017-12-31T21:02:44.766Z,13.30
2017-12-31T21:05:14.364Z,13.40
2017-12-31T21:07:41.487Z,13.40
2017-12-31T21:10:08.379Z,13.40
2017-12-31T21:12:35.529Z,13.40
2017-12-31T21:15:02.443Z,13.40
2017-12-31T21:17:29.599Z,13.30
2017-12-31T21:19:56.715Z,13.40
2017-12-31T21:22:23.747Z,13.40
2017-12-31T21:24:50.787Z,13.30
2017-12-31T21:27:17.867Z,13.40
2017-12-31T21:29:45.650Z,13.40
2017-12-31T21:32:12.630Z,13.40
2017-12-31T21:34:39.671Z,13.40
2017-12-31T21:37:06.610Z,13.30
2017-12-31T21:39:33.620Z,13.30
2017-12-31T21:42:01.292Z,13.20
2017-12-31T21:44:33.117Z,13.20
2017-12-31T21:47:00.353Z,13.20
2017-12-31T21:49:27.368Z,13.10
2017-12-31T21:51:54.247Z,13.20
2017-12-31T21:54:21.289Z,13.20
2017-12-31T21:56:48.240Z,13.20
2017-12-31T21:59:15.118Z,13.20
2017-12-31T22:01:42.212Z,13.30
2017-12-31T22:04:09.224Z,13.40
2017-12-31T22:06:37.090Z,13.30
2017-12-31T22:09:04.859Z,13.20
2017-12-31T22:11:32.662Z,13.10
2017-12-31T22:13:59.783Z,13.10
2017-12-31T22:16:26.793Z,13.10
2017-12-31T22:18:53.764Z,13.20
2017-12-31T22:21:20.939Z,13.00
2017-12-31T22:23:48.299Z,13.10
2017-12-31T22:26:17.666Z,13.10
2017-12-31T22:28:44.735Z,13.10
2017-12-31T22:31:12.675Z,13.10
2017-12-31T22:33:39.708Z,13.10
2017-12-31T22:36:06.706Z,13.10
2017-12-31T22:38:33.787Z,13.10
2017-12-31T22:41:00.803Z,13.00
2017-12-31T22:43:27.832Z,13.00
2017-12-31T22:45:54.790Z,13.00
2017-12-31T22:48:35.068Z,13.00
2017-12-31T22:51:16.307Z,13.10
2017-12-31T22:53:58.632Z,13.00
2017-12-31T22:56:40.096Z,13.00
2017-12-31T23:02:07.376Z,13.00
2017-12-31T23:07:34.345Z,12.90
2017-12-31T23:15:51.408Z,12.70
2017-12-31T23:18:32.359Z,12.70
2017-12-31T23:21:09.578Z,12.70
2017-12-31T23:29:21.342Z,12.60
2017-12-31T23:32:03.517Z,12.50
2017-12-31T23:34:48.577Z,12.40
2017-12-31T23:37:29.140Z,12.40
2017-12-31T23:40:15.667Z,12.30
2017-12-31T23:42:58.011Z,12.20
2017-12-31T23:45:42.788Z,12.20
2017-12-31T23:48:24.824Z,12.10
2017-12-31T23:53:49.147Z,12.10
2017-12-31T23:56:33.470Z,12.10
2017-12-31T23:59:17.613Z,12.10
